sensor_id;sensor_type;location;lat;lon;timestamp;pressure;altitude;pressure_sealevel;temperature;humidity
57600;BME280;43426;43.594;24.334;2023-11-18T00:01:48;100428.75;;;6.40;100.00
57600;BME280;43426;43.594;24.334;2023-11-18T00:04:13;100465.81;;;6.62;100.00
57600;BME280;43426;43.594;24.334;2023-11-18T00:06:42;100462.53;;;6.69;100.00
57600;BME280;43426;43.594;24.334;2023-11-18T00:09:11;100464.53;;;6.67;100.00
57600;BME280;43426;43.594;24.334;2023-11-18T00:11:42;100464.91;;;6.72;100.00
57600;BME280;43426;43.594;24.334;2023-11-18T00:14:08;100435.56;;;6.52;100.00
57600;BME280;43426;43.594;24.334;2023-11-18T00:16:35;100465.50;;;6.65;100.00
57600;BME280;43426;43.594;24.334;2023-11-18T00:19:02;100435.50;;;6.44;100.00
57600;BME280;43426;43.594;24.334;2023-11-18T00:21:30;100443.22;;;6.47;100.00
57600;BME280;43426;43.594;24.334;2023-11-18T00:23:55;100477.38;;;6.63;100.00
57600;BME280;43426;43.594;24.334;2023-11-18T00:26:21;100484.59;;;6.62;100.00
57600;BME280;43426;43.594;24.334;2023-11-18T00:28:47;100481.34;;;6.59;100.00
57600;BME280;43426;43.594;24.334;2023-11-18T00:31:14;100439.84;;;6.45;100.00
57600;BME280;43426;43.594;24.334;2023-11-18T00:33:39;100459.91;;;6.59;100.00
57600;BME280;43426;43.594;24.334;2023-11-18T00:36:06;100462.97;;;6.64;100.00
57600;BME280;43426;43.594;24.334;2023-11-18T00:38:32;100421.38;;;6.42;100.00
57600;BME280;43426;43.594;24.334;2023-11-18T00:40:57;100450.81;;;6.70;100.00
57600;BME280;43426;43.594;24.334;2023-11-18T00:43:23;100444.16;;;6.74;100.00
57600;BME280;43426;43.594;24.334;2023-11-18T00:45:48;100436.34;;;6.62;100.00
57600;BME280;43426;43.594;24.334;2023-11-18T00:48:14;100433.03;;;6.69;100.00
57600;BME280;43426;43.594;24.334;2023-11-18T00:50:40;100442.16;;;6.76;100.00
57600;BME280;43426;43.594;24.334;2023-11-18T00:53:05;100409.69;;;6.61;100.00
57600;BME280;43426;43.594;24.334;2023-11-18T00:55:31;100392.75;;;6.60;100.00
57600;BME280;43426;43.594;24.334;2023-11-18T00:57:57;100431.97;;;6.79;100.00
57600;BME280;43426;43.594;24.334;2023-11-18T01:00:23;100438.84;;;6.82;100.00
57600;BME280;43426;43.594;24.334;2023-11-18T01:02:52;100434.13;;;6.76;100.00
57600;BME280;43426;43.594;24.334;2023-11-18T01:05:18;100442.59;;;6.71;100.00
57600;BME280;43426;43.594;24.334;2023-11-18T01:07:44;100442.00;;;6.77;100.00
57600;BME280;43426;43.594;24.334;2023-11-18T01:10:10;100441.63;;;6.72;100.00
57600;BME280;43426;43.594;24.334;2023-11-18T01:12:36;100429.44;;;6.60;100.00
57600;BME280;43426;43.594;24.334;2023-11-18T01:15:03;100404.78;;;6.56;100.00
57600;BME280;43426;43.594;24.334;2023-11-18T01:17:29;100393.69;;;6.51;100.00
57600;BME280;43426;43.594;24.334;2023-11-18T01:19:56;100425.75;;;6.61;100.00
57600;BME280;43426;43.594;24.334;2023-11-18T01:22:22;100413.66;;;6.57;100.00
57600;BME280;43426;43.594;24.334;2023-11-18T01:24:47;100372.53;;;6.30;100.00
57600;BME280;43426;43.594;24.334;2023-11-18T01:27:13;100394.19;;;6.55;100.00
57600;BME280;43426;43.594;24.334;2023-11-18T01:29:39;100367.47;;;6.45;100.00
57600;BME280;43426;43.594;24.334;2023-11-18T01:32:06;100388.16;;;6.53;100.00
57600;BME280;43426;43.594;24.334;2023-11-18T01:34:37;100405.78;;;6.55;100.00
57600;BME280;43426;43.594;24.334;2023-11-18T01:37:08;100404.78;;;6.56;100.00
57600;BME280;43426;43.594;24.334;2023-11-18T01:39:34;100436.19;;;6.64;100.00
57600;BME280;43426;43.594;24.334;2023-11-18T01:42:01;100435.63;;;6.60;100.00
57600;BME280;43426;43.594;24.334;2023-11-18T01:44:28;100451.88;;;6.59;100.00
57600;BME280;43426;43.594;24.334;2023-11-18T01:46:55;100472.16;;;6.61;100.00
57600;BME280;43426;43.594;24.334;2023-11-18T01:49:22;100474.84;;;6.61;100.00
57600;BME280;43426;43.594;24.334;2023-11-18T01:51:50;100441.53;;;6.46;100.00
57600;BME280;43426;43.594;24.334;2023-11-18T01:54:16;100445.03;;;6.46;100.00
57600;BME280;43426;43.594;24.334;2023-11-18T01:56:47;100458.44;;;6.64;100.00
57600;BME280;43426;43.594;24.334;2023-11-18T01:59:13;100429.59;;;6.40;100.00
57600;BME280;43426;43.594;24.334;2023-11-18T02:01:52;100436.09;;;6.56;100.00
57600;BME280;43426;43.594;24.334;2023-11-18T02:04:19;100415.47;;;6.38;100.00
57600;BME280;43426;43.594;24.334;2023-11-18T02:06:45;100439.91;;;6.53;100.00
57600;BME280;43426;43.594;24.334;2023-11-18T02:09:12;100444.53;;;6.43;100.00
57600;BME280;43426;43.594;24.334;2023-11-18T02:11:43;100427.38;;;6.36;100.00
57600;BME280;43426;43.594;24.334;2023-11-18T02:14:13;100440.00;;;6.43;100.00
57600;BME280;43426;43.594;24.334;2023-11-18T02:16:42;100450.56;;;6.45;100.00
57600;BME280;43426;43.594;24.334;2023-11-18T02:19:20;100442.16;;;6.40;100.00
57600;BME280;43426;43.594;24.334;2023-11-18T02:21:47;100454.16;;;6.36;100.00
57600;BME280;43426;43.594;24.334;2023-11-18T02:24:31;100455.31;;;6.33;100.00
57600;BME280;43426;43.594;24.334;2023-11-18T02:27:02;100456.22;;;6.42;100.00
57600;BME280;43426;43.594;24.334;2023-11-18T02:29:42;100463.50;;;6.32;100.00
57600;BME280;43426;43.594;24.334;2023-11-18T02:32:25;100465.78;;;6.26;100.00
57600;BME280;43426;43.594;24.334;2023-11-18T02:35:00;100462.69;;;6.21;100.00
57600;BME280;43426;43.594;24.334;2023-11-18T02:37:28;100436.81;;;6.12;99.51
57600;BME280;43426;43.594;24.334;2023-11-18T02:40:03;100439.41;;;6.04;99.26
57600;BME280;43426;43.594;24.334;2023-11-18T02:42:35;100446.72;;;6.02;99.30
57600;BME280;43426;43.594;24.334;2023-11-18T02:45:04;100442.53;;;5.89;99.12
57600;BME280;43426;43.594;24.334;2023-11-18T02:47:32;100443.81;;;5.85;98.74
57600;BME280;43426;43.594;24.334;2023-11-18T02:49:57;100433.84;;;5.77;99.19
57600;BME280;43426;43.594;24.334;2023-11-18T02:52:31;100465.03;;;5.96;99.37
57600;BME280;43426;43.594;24.334;2023-11-18T02:54:58;100473.50;;;6.02;98.46
57600;BME280;43426;43.594;24.334;2023-11-18T02:57:24;100474.09;;;5.95;97.66
57600;BME280;43426;43.594;24.334;2023-11-18T02:59:49;100462.25;;;5.88;96.77
57600;BME280;43426;43.594;24.334;2023-11-18T03:02:15;100481.16;;;5.87;96.41
57600;BME280;43426;43.594;24.334;2023-11-18T03:04:40;100451.19;;;5.73;95.17
57600;BME280;43426;43.594;24.334;2023-11-18T03:07:07;100467.00;;;5.67;94.44
57600;BME280;43426;43.594;24.334;2023-11-18T03:09:33;100481.75;;;5.80;93.32
57600;BME280;43426;43.594;24.334;2023-11-18T03:12:00;100512.59;;;5.85;92.18
57600;BME280;43426;43.594;24.334;2023-11-18T03:14:25;100511.34;;;5.79;92.89
57600;BME280;43426;43.594;24.334;2023-11-18T03:16:51;100516.44;;;5.72;93.57
57600;BME280;43426;43.594;24.334;2023-11-18T03:19:16;100514.75;;;5.61;93.64
57600;BME280;43426;43.594;24.334;2023-11-18T03:21:41;100515.47;;;5.63;93.92
57600;BME280;43426;43.594;24.334;2023-11-18T03:24:08;100523.50;;;5.63;92.76
57600;BME280;43426;43.594;24.334;2023-11-18T03:26:34;100514.50;;;5.55;93.12
57600;BME280;43426;43.594;24.334;2023-11-18T03:29:00;100500.31;;;5.35;93.12
57600;BME280;43426;43.594;24.334;2023-11-18T03:31:25;100527.06;;;5.44;93.90
57600;BME280;43426;43.594;24.334;2023-11-18T03:33:51;100532.69;;;5.51;92.54
57600;BME280;43426;43.594;24.334;2023-11-18T03:36:17;100531.97;;;5.39;93.44
57600;BME280;43426;43.594;24.334;2023-11-18T03:38:43;100531.84;;;5.41;92.65
57600;BME280;43426;43.594;24.334;2023-11-18T03:41:09;100527.75;;;5.37;92.23
57600;BME280;43426;43.594;24.334;2023-11-18T03:43:34;100499.34;;;5.06;92.59
57600;BME280;43426;43.594;24.334;2023-11-18T03:46:00;100511.44;;;5.20;91.99
57600;BME280;43426;43.594;24.334;2023-11-18T03:48:25;100505.56;;;5.07;92.32
57600;BME280;43426;43.594;24.334;2023-11-18T03:50:51;100488.22;;;4.91;92.32
57600;BME280;43426;43.594;24.334;2023-11-18T03:53:16;100484.41;;;5.04;90.76
57600;BME280;43426;43.594;24.334;2023-11-18T03:55:42;100499.03;;;5.09;90.83
57600;BME280;43426;43.594;24.334;2023-11-18T03:58:07;100511.28;;;5.12;91.57
57600;BME280;43426;43.594;24.334;2023-11-18T04:00:34;100486.69;;;4.89;91.53
57600;BME280;43426;43.594;24.334;2023-11-18T04:02:59;100471.63;;;4.78;91.93
57600;BME280;43426;43.594;24.334;2023-11-18T04:05:25;100505.81;;;4.94;92.59
57600;BME280;43426;43.594;24.334;2023-11-18T04:07:51;100494.44;;;4.82;93.12
57600;BME280;43426;43.594;24.334;2023-11-18T04:10:17;100504.00;;;4.85;93.09
57600;BME280;43426;43.594;24.334;2023-11-18T04:12:43;100500.31;;;4.76;93.90
57600;BME280;43426;43.594;24.334;2023-11-18T04:15:12;100507.63;;;4.64;95.15
57600;BME280;43426;43.594;24.334;2023-11-18T04:17:38;100497.63;;;4.56;96.17
57600;BME280;43426;43.594;24.334;2023-11-18T04:20:04;100506.06;;;4.52;96.88
57600;BME280;43426;43.594;24.334;2023-11-18T04:22:38;100497.47;;;4.58;97.08
57600;BME280;43426;43.594;24.334;2023-11-18T04:25:04;100498.31;;;4.49;97.66
57600;BME280;43426;43.594;24.334;2023-11-18T04:27:31;100508.31;;;4.56;97.61
57600;BME280;43426;43.594;24.334;2023-11-18T04:29:57;100504.66;;;4.57;97.85
57600;BME280;43426;43.594;24.334;2023-11-18T04:32:23;100502.53;;;4.51;98.07
57600;BME280;43426;43.594;24.334;2023-11-18T04:34:48;100470.28;;;4.33;98.56
57600;BME280;43426;43.594;24.334;2023-11-18T04:37:16;100498.19;;;4.50;98.44
57600;BME280;43426;43.594;24.334;2023-11-18T04:39:42;100499.28;;;4.48;98.30
57600;BME280;43426;43.594;24.334;2023-11-18T04:42:07;100508.00;;;4.50;98.52
57600;BME280;43426;43.594;24.334;2023-11-18T04:44:33;100510.97;;;4.47;97.78
57600;BME280;43426;43.594;24.334;2023-11-18T04:46:58;100490.84;;;4.42;97.95
57600;BME280;43426;43.594;24.334;2023-11-18T04:49:24;100491.97;;;4.40;97.34
57600;BME280;43426;43.594;24.334;2023-11-18T04:51:50;100489.72;;;4.45;97.42
57600;BME280;43426;43.594;24.334;2023-11-18T04:54:15;100453.66;;;4.10;97.04
57600;BME280;43426;43.594;24.334;2023-11-18T04:56:41;100452.97;;;4.18;97.13
57600;BME280;43426;43.594;24.334;2023-11-18T04:59:06;100486.75;;;4.38;96.55
57600;BME280;43426;43.594;24.334;2023-11-18T05:01:32;100456.66;;;4.26;95.87
57600;BME280;43426;43.594;24.334;2023-11-18T05:03:59;100454.81;;;4.17;95.95
57600;BME280;43426;43.594;24.334;2023-11-18T05:06:25;100463.25;;;4.22;95.30
57600;BME280;43426;43.594;24.334;2023-11-18T05:08:51;100486.06;;;4.36;95.17
57600;BME280;43426;43.594;24.334;2023-11-18T05:11:17;100485.34;;;4.34;94.90
57600;BME280;43426;43.594;24.334;2023-11-18T05:13:42;100489.56;;;4.37;95.00
57600;BME280;43426;43.594;24.334;2023-11-18T05:16:08;100452.13;;;4.17;94.19
57600;BME280;43426;43.594;24.334;2023-11-18T05:18:35;100467.31;;;4.17;94.78
57600;BME280;43426;43.594;24.334;2023-11-18T05:21:02;100493.19;;;4.26;94.74
57600;BME280;43426;43.594;24.334;2023-11-18T05:23:28;100492.16;;;4.07;94.65
57600;BME280;43426;43.594;24.334;2023-11-18T05:25:57;100469.81;;;4.08;93.96
57600;BME280;43426;43.594;24.334;2023-11-18T05:28:24;100501.44;;;4.13;94.50
57600;BME280;43426;43.594;24.334;2023-11-18T05:30:50;100502.28;;;4.14;94.40
57600;BME280;43426;43.594;24.334;2023-11-18T05:33:16;100485.91;;;3.97;93.31
57600;BME280;43426;43.594;24.334;2023-11-18T05:35:43;100515.94;;;4.20;93.42
57600;BME280;43426;43.594;24.334;2023-11-18T05:38:17;100517.75;;;4.10;94.23
57600;BME280;43426;43.594;24.334;2023-11-18T05:40:51;100483.53;;;3.94;93.51
57600;BME280;43426;43.594;24.334;2023-11-18T05:43:27;100513.09;;;4.12;93.30
57600;BME280;43426;43.594;24.334;2023-11-18T05:46:02;100474.97;;;3.90;93.49
57600;BME280;43426;43.594;24.334;2023-11-18T05:48:44;100503.22;;;4.03;93.38
57600;BME280;43426;43.594;24.334;2023-11-18T05:51:10;100483.25;;;3.97;93.16
57600;BME280;43426;43.594;24.334;2023-11-18T05:53:40;100497.81;;;4.14;93.19
57600;BME280;43426;43.594;24.334;2023-11-18T05:56:07;100511.03;;;4.16;92.92
57600;BME280;43426;43.594;24.334;2023-11-18T05:58:32;100500.91;;;4.19;92.32
57600;BME280;43426;43.594;24.334;2023-11-18T06:00:58;100498.38;;;4.18;92.71
57600;BME280;43426;43.594;24.334;2023-11-18T06:03:23;100506.25;;;4.19;92.73
57600;BME280;43426;43.594;24.334;2023-11-18T06:05:49;100504.28;;;4.21;92.04
57600;BME280;43426;43.594;24.334;2023-11-18T06:08:16;100508.53;;;4.24;92.21
57600;BME280;43426;43.594;24.334;2023-11-18T06:10:42;100509.06;;;4.28;91.51
57600;BME280;43426;43.594;24.334;2023-11-18T06:13:10;100521.00;;;4.23;91.64
57600;BME280;43426;43.594;24.334;2023-11-18T06:15:38;100527.78;;;4.28;91.83
57600;BME280;43426;43.594;24.334;2023-11-18T06:18:04;100534.53;;;4.32;91.48
57600;BME280;43426;43.594;24.334;2023-11-18T06:20:30;100539.47;;;4.26;92.26
57600;BME280;43426;43.594;24.334;2023-11-18T06:22:55;100514.34;;;4.08;92.43
57600;BME280;43426;43.594;24.334;2023-11-18T06:25:22;100515.31;;;4.07;91.98
57600;BME280;43426;43.594;24.334;2023-11-18T06:27:51;100531.31;;;4.28;91.52
57600;BME280;43426;43.594;24.334;2023-11-18T06:30:18;100536.50;;;4.30;91.28
57600;BME280;43426;43.594;24.334;2023-11-18T06:32:45;100522.19;;;4.31;91.37
57600;BME280;43426;43.594;24.334;2023-11-18T06:35:12;100515.84;;;4.32;91.51
57600;BME280;43426;43.594;24.334;2023-11-18T06:37:40;100527.25;;;4.34;91.62
57600;BME280;43426;43.594;24.334;2023-11-18T06:40:06;100521.63;;;4.37;91.37
57600;BME280;43426;43.594;24.334;2023-11-18T06:42:44;100524.44;;;4.35;91.61
57600;BME280;43426;43.594;24.334;2023-11-18T06:45:13;100492.75;;;4.21;91.82
57600;BME280;43426;43.594;24.334;2023-11-18T06:47:40;100505.44;;;4.38;90.96
57600;BME280;43426;43.594;24.334;2023-11-18T06:50:09;100498.56;;;4.46;90.71
57600;BME280;43426;43.594;24.334;2023-11-18T06:52:37;100509.44;;;4.64;90.81
57600;BME280;43426;43.594;24.334;2023-11-18T06:55:04;100496.38;;;4.80;89.86
57600;BME280;43426;43.594;24.334;2023-11-18T06:57:30;100496.66;;;4.97;90.14
57600;BME280;43426;43.594;24.334;2023-11-18T06:59:56;100500.56;;;5.32;89.04
57600;BME280;43426;43.594;24.334;2023-11-18T07:02:21;100501.44;;;5.42;87.90
57600;BME280;43426;43.594;24.334;2023-11-18T07:04:47;100471.41;;;5.48;88.57
57600;BME280;43426;43.594;24.334;2023-11-18T07:07:12;100474.28;;;5.74;86.62
57600;BME280;43426;43.594;24.334;2023-11-18T07:09:38;100469.78;;;5.75;87.30
57600;BME280;43426;43.594;24.334;2023-11-18T07:12:05;100493.41;;;5.89;87.24
57600;BME280;43426;43.594;24.334;2023-11-18T07:14:30;100480.88;;;5.80;86.69
57600;BME280;43426;43.594;24.334;2023-11-18T07:16:58;100465.44;;;5.64;86.21
57600;BME280;43426;43.594;24.334;2023-11-18T07:19:24;100490.78;;;5.70;85.61
57600;BME280;43426;43.594;24.334;2023-11-18T07:21:50;100500.94;;;5.66;86.21
57600;BME280;43426;43.594;24.334;2023-11-18T07:24:15;100512.09;;;5.61;86.01
57600;BME280;43426;43.594;24.334;2023-11-18T07:26:42;100491.13;;;5.47;85.95
57600;BME280;43426;43.594;24.334;2023-11-18T07:29:09;100500.69;;;5.50;86.41
57600;BME280;43426;43.594;24.334;2023-11-18T07:31:35;100514.47;;;5.65;85.25
57600;BME280;43426;43.594;24.334;2023-11-18T07:34:04;100501.94;;;5.65;86.29
57600;BME280;43426;43.594;24.334;2023-11-18T07:36:31;100516.31;;;5.64;84.08
57600;BME280;43426;43.594;24.334;2023-11-18T07:38:57;100494.81;;;5.46;85.15
57600;BME280;43426;43.594;24.334;2023-11-18T07:41:26;100520.13;;;5.61;85.23
57600;BME280;43426;43.594;24.334;2023-11-18T07:43:55;100489.16;;;5.39;86.31
57600;BME280;43426;43.594;24.334;2023-11-18T07:46:24;100520.81;;;5.54;86.81
57600;BME280;43426;43.594;24.334;2023-11-18T07:48:51;100489.16;;;5.39;86.63
57600;BME280;43426;43.594;24.334;2023-11-18T07:51:21;100512.69;;;5.55;85.00
57600;BME280;43426;43.594;24.334;2023-11-18T07:53:47;100518.03;;;5.55;84.65
57600;BME280;43426;43.594;24.334;2023-11-18T07:56:13;100499.03;;;5.49;85.64
57600;BME280;43426;43.594;24.334;2023-11-18T07:58:42;100478.91;;;5.35;85.17
57600;BME280;43426;43.594;24.334;2023-11-18T08:01:14;100504.75;;;5.54;85.51
57600;BME280;43426;43.594;24.334;2023-11-18T08:03:41;100500.69;;;5.50;86.52
57600;BME280;43426;43.594;24.334;2023-11-18T08:06:07;100507.19;;;5.57;84.72
57600;BME280;43426;43.594;24.334;2023-11-18T08:08:34;100503.25;;;5.51;84.73
57600;BME280;43426;43.594;24.334;2023-11-18T08:10:59;100453.59;;;5.19;85.69
57600;BME280;43426;43.594;24.334;2023-11-18T08:13:25;100511.28;;;5.51;84.47
57600;BME280;43426;43.594;24.334;2023-11-18T08:15:51;100493.69;;;5.39;85.00
57600;BME280;43426;43.594;24.334;2023-11-18T08:18:17;100517.00;;;5.56;85.30
57600;BME280;43426;43.594;24.334;2023-11-18T08:20:44;100483.41;;;5.34;84.95
57600;BME280;43426;43.594;24.334;2023-11-18T08:23:10;100475.94;;;5.38;84.31
57600;BME280;43426;43.594;24.334;2023-11-18T08:25:35;100509.00;;;5.56;84.15
57600;BME280;43426;43.594;24.334;2023-11-18T08:28:02;100505.47;;;5.56;84.64
57600;BME280;43426;43.594;24.334;2023-11-18T08:30:29;100495.91;;;5.53;84.61
57600;BME280;43426;43.594;24.334;2023-11-18T08:32:54;100473.41;;;5.36;85.32
57600;BME280;43426;43.594;24.334;2023-11-18T08:35:19;100508.00;;;5.57;83.32
57600;BME280;43426;43.594;24.334;2023-11-18T08:37:47;100486.19;;;5.52;82.79
57600;BME280;43426;43.594;24.334;2023-11-18T08:40:13;100464.66;;;5.44;83.53
57600;BME280;43426;43.594;24.334;2023-11-18T08:42:48;100503.63;;;5.56;83.86
57600;BME280;43426;43.594;24.334;2023-11-18T08:45:18;100476.75;;;5.48;83.54
57600;BME280;43426;43.594;24.334;2023-11-18T08:47:45;100523.91;;;5.69;83.82
57600;BME280;43426;43.594;24.334;2023-11-18T08:50:16;100496.16;;;5.70;81.02
57600;BME280;43426;43.594;24.334;2023-11-18T08:52:45;100509.09;;;5.74;82.94
57600;BME280;43426;43.594;24.334;2023-11-18T08:55:15;100497.84;;;5.71;83.00
57600;BME280;43426;43.594;24.334;2023-11-18T08:57:46;100516.09;;;5.85;81.62
57600;BME280;43426;43.594;24.334;2023-11-18T09:00:34;100489.06;;;5.78;80.39
57600;BME280;43426;43.594;24.334;2023-11-18T09:03:24;100458.31;;;5.83;80.94
57600;BME280;43426;43.594;24.334;2023-11-18T09:05:55;100489.44;;;6.03;80.96
57600;BME280;43426;43.594;24.334;2023-11-18T09:08:31;100459.56;;;5.88;79.87
57600;BME280;43426;43.594;24.334;2023-11-18T09:11:09;100485.63;;;6.06;79.60
57600;BME280;43426;43.594;24.334;2023-11-18T09:13:55;100489.84;;;6.08;80.85
57600;BME280;43426;43.594;24.334;2023-11-18T09:16:29;100452.50;;;5.97;79.73
57600;BME280;43426;43.594;24.334;2023-11-18T09:18:55;100456.03;;;5.97;80.62
57600;BME280;43426;43.594;24.334;2023-11-18T09:21:23;100472.16;;;6.16;79.61
57600;BME280;43426;43.594;24.334;2023-11-18T09:23:50;100478.03;;;6.29;78.43
57600;BME280;43426;43.594;24.334;2023-11-18T09:26:21;100484.63;;;6.35;79.14
57600;BME280;43426;43.594;24.334;2023-11-18T09:28:46;100482.94;;;6.34;78.87
57600;BME280;43426;43.594;24.334;2023-11-18T09:31:15;100462.28;;;6.44;78.46
57600;BME280;43426;43.594;24.334;2023-11-18T09:33:42;100479.06;;;6.46;78.08
57600;BME280;43426;43.594;24.334;2023-11-18T09:36:17;100452.47;;;6.35;77.94
57600;BME280;43426;43.594;24.334;2023-11-18T09:38:43;100443.41;;;6.18;77.98
57600;BME280;43426;43.594;24.334;2023-11-18T09:41:12;100483.50;;;6.55;79.86
57600;BME280;43426;43.594;24.334;2023-11-18T09:43:43;100467.28;;;6.57;79.24
57600;BME280;43426;43.594;24.334;2023-11-18T09:48:45;100434.03;;;6.50;75.86
57600;BME280;43426;43.594;24.334;2023-11-18T09:51:21;100477.84;;;6.76;77.12
57600;BME280;43426;43.594;24.334;2023-11-18T09:53:52;100422.00;;;6.36;75.79
57600;BME280;43426;43.594;24.334;2023-11-18T09:56:23;100466.72;;;6.71;76.47
57600;BME280;43426;43.594;24.334;2023-11-18T10:01:38;100474.34;;;6.58;77.38
57600;BME280;43426;43.594;24.334;2023-11-18T10:04:05;100453.22;;;6.45;77.11
57600;BME280;43426;43.594;24.334;2023-11-18T10:06:34;100468.72;;;6.51;78.11
57600;BME280;43426;43.594;24.334;2023-11-18T10:09:02;100440.75;;;6.36;77.53
57600;BME280;43426;43.594;24.334;2023-11-18T10:11:41;100472.94;;;6.54;77.44
57600;BME280;43426;43.594;24.334;2023-11-18T10:14:07;100475.72;;;6.62;75.92
57600;BME280;43426;43.594;24.334;2023-11-18T10:16:34;100431.63;;;6.46;77.79
57600;BME280;43426;43.594;24.334;2023-11-18T10:19:01;100484.44;;;6.82;76.92
57600;BME280;43426;43.594;24.334;2023-11-18T10:21:36;100477.03;;;6.76;75.97
57600;BME280;43426;43.594;24.334;2023-11-18T10:24:05;100471.66;;;6.76;76.97
57600;BME280;43426;43.594;24.334;2023-11-18T10:26:37;100465.44;;;6.75;76.24
57600;BME280;43426;43.594;24.334;2023-11-18T10:29:04;100481.16;;;6.88;76.38
57600;BME280;43426;43.594;24.334;2023-11-18T10:31:34;100480.31;;;6.88;77.07
57600;BME280;43426;43.594;24.334;2023-11-18T10:34:03;100462.91;;;6.74;76.71
57600;BME280;43426;43.594;24.334;2023-11-18T10:36:29;100463.53;;;6.68;76.40
57600;BME280;43426;43.594;24.334;2023-11-18T10:38:58;100480.44;;;6.68;76.10
57600;BME280;43426;43.594;24.334;2023-11-18T10:41:26;100494.25;;;6.73;77.79
57600;BME280;43426;43.594;24.334;2023-11-18T10:44:12;100493.13;;;6.76;76.48
57600;BME280;43426;43.594;24.334;2023-11-18T10:46:53;100494.78;;;6.77;75.97
57600;BME280;43426;43.594;24.334;2023-11-18T10:49:22;100493.78;;;6.78;76.35
57600;BME280;43426;43.594;24.334;2023-11-18T10:51:51;100478.47;;;6.70;76.28
57600;BME280;43426;43.594;24.334;2023-11-18T10:54:17;100473.63;;;6.56;76.23
57600;BME280;43426;43.594;24.334;2023-11-18T10:56:48;100459.63;;;6.44;76.65
57600;BME280;43426;43.594;24.334;2023-11-18T10:59:15;100490.63;;;6.64;75.87
57600;BME280;43426;43.594;24.334;2023-11-18T11:01:44;100485.06;;;6.58;76.33
57600;BME280;43426;43.594;24.334;2023-11-18T11:04:13;100481.97;;;6.53;76.39
57600;BME280;43426;43.594;24.334;2023-11-18T11:06:43;100472.00;;;6.45;77.47
57600;BME280;43426;43.594;24.334;2023-11-18T11:09:20;100443.03;;;6.30;77.35
57600;BME280;43426;43.594;24.334;2023-11-18T11:11:57;100444.66;;;6.23;77.31
57600;BME280;43426;43.594;24.334;2023-11-18T11:14:39;100441.34;;;6.29;77.43
57600;BME280;43426;43.594;24.334;2023-11-18T11:17:13;100420.44;;;6.15;76.43
57600;BME280;43426;43.594;24.334;2023-11-18T11:19:55;100456.84;;;6.36;77.48
57600;BME280;43426;43.594;24.334;2023-11-18T11:22:44;100455.00;;;6.36;77.07
57600;BME280;43426;43.594;24.334;2023-11-18T11:25:22;100414.94;;;6.17;77.96
57600;BME280;43426;43.594;24.334;2023-11-18T11:28:12;100441.44;;;6.38;76.66
57600;BME280;43426;43.594;24.334;2023-11-18T11:30:46;100424.88;;;6.24;77.16
57600;BME280;43426;43.594;24.334;2023-11-18T11:33:35;100462.56;;;6.41;76.93
57600;BME280;43426;43.594;24.334;2023-11-18T11:36:11;100442.94;;;6.22;77.06
57600;BME280;43426;43.594;24.334;2023-11-18T11:38:37;100430.38;;;6.23;75.62
57600;BME280;43426;43.594;24.334;2023-11-18T11:41:06;100469.38;;;6.35;76.65
57600;BME280;43426;43.594;24.334;2023-11-18T11:43:34;100470.81;;;6.29;76.88
57600;BME280;43426;43.594;24.334;2023-11-18T11:46:01;100469.38;;;6.35;77.47
57600;BME280;43426;43.594;24.334;2023-11-18T11:48:36;100462.69;;;6.21;77.01
57600;BME280;43426;43.594;24.334;2023-11-18T11:51:14;100446.22;;;6.16;76.56
57600;BME280;43426;43.594;24.334;2023-11-18T11:53:55;100469.44;;;6.25;77.29
57600;BME280;43426;43.594;24.334;2023-11-18T11:56:39;100456.25;;;6.14;77.35
57600;BME280;43426;43.594;24.334;2023-11-18T11:59:05;100486.59;;;6.33;76.89
57600;BME280;43426;43.594;24.334;2023-11-18T12:01:37;100482.69;;;6.27;76.89
57600;BME280;43426;43.594;24.334;2023-11-18T12:04:09;100437.97;;;6.09;76.72
57600;BME280;43426;43.594;24.334;2023-11-18T12:06:55;100480.16;;;6.25;77.19
57600;BME280;43426;43.594;24.334;2023-11-18T12:09:22;100424.50;;;5.91;76.77
57600;BME280;43426;43.594;24.334;2023-11-18T12:11:58;100437.00;;;6.01;75.57
57600;BME280;43426;43.594;24.334;2023-11-18T12:14:24;100466.50;;;6.19;76.54
57600;BME280;43426;43.594;24.334;2023-11-18T12:16:59;100489.38;;;6.13;76.40
57600;BME280;43426;43.594;24.334;2023-11-18T12:19:47;100459.25;;;6.11;77.15
57600;BME280;43426;43.594;24.334;2023-11-18T12:22:16;100463.50;;;6.04;76.42
57600;BME280;43426;43.594;24.334;2023-11-18T12:35:29;100477.75;;;5.94;75.96
57600;BME280;43426;43.594;24.334;2023-11-18T12:40:55;100492.38;;;6.10;76.41
57600;BME280;43426;43.594;24.334;2023-11-18T12:48:56;100469.72;;;5.94;75.69
57600;BME280;43426;43.594;24.334;2023-11-18T12:51:23;100470.38;;;5.96;76.09
57600;BME280;43426;43.594;24.334;2023-11-18T12:53:49;100475.19;;;6.03;76.28
57600;BME280;43426;43.594;24.334;2023-11-18T12:56:21;100471.13;;;5.99;75.74
57600;BME280;43426;43.594;24.334;2023-11-18T12:58:48;100500.66;;;6.17;75.75
57600;BME280;43426;43.594;24.334;2023-11-18T13:01:14;100499.78;;;6.16;75.89
57600;BME280;43426;43.594;24.334;2023-11-18T13:03:41;100510.09;;;6.21;75.87
57600;BME280;43426;43.594;24.334;2023-11-18T13:06:08;100516.69;;;6.26;76.20
57600;BME280;43426;43.594;24.334;2023-11-18T13:08:33;100473.75;;;6.08;75.08
57600;BME280;43426;43.594;24.334;2023-11-18T13:10:59;100500.81;;;6.15;75.16
57600;BME280;43426;43.594;24.334;2023-11-18T13:13:34;100522.97;;;6.35;75.01
57600;BME280;43426;43.594;24.334;2023-11-18T13:16:00;100501.91;;;6.22;74.91
57600;BME280;43426;43.594;24.334;2023-11-18T13:18:27;100522.44;;;6.32;74.77
57600;BME280;43426;43.594;24.334;2023-11-18T13:20:57;100523.44;;;6.30;74.37